createdAt,value
2024-01-08T00:02:16.119Z,56.75
2024-01-08T00:04:44.175Z,56.72
2024-01-08T00:07:12.029Z,56.63
2024-01-08T00:09:39.841Z,56.58
2024-01-08T00:12:07.958Z,56.69
2024-01-08T00:14:35.876Z,56.96
2024-01-08T00:17:04.118Z,57.05
2024-01-08T00:19:33.038Z,56.95
2024-01-08T00:22:00.938Z,57.10
2024-01-08T00:24:29.233Z,57.08
2024-01-08T00:26:57.096Z,56.88
2024-01-08T00:29:25.024Z,57.00
2024-01-08T00:31:53.018Z,56.81
2024-01-08T00:34:21.886Z,56.65
2024-01-08T00:36:50.210Z,56.40
2024-01-08T00:39:18.043Z,56.36
2024-01-08T00:41:46.005Z,56.22
2024-01-08T00:44:13.900Z,56.05
2024-01-08T00:46:41.886Z,56.28
2024-01-08T00:49:09.862Z,56.18
2024-01-08T00:51:37.739Z,56.28
2024-01-08T00:54:05.737Z,56.18
2024-01-08T00:56:33.637Z,56.14
2024-01-08T00:59:01.604Z,56.47
2024-01-08T01:01:29.589Z,56.47
2024-01-08T01:03:57.628Z,56.47
2024-01-08T01:06:25.688Z,56.49
2024-01-08T01:08:53.783Z,56.32
2024-01-08T01:11:21.662Z,56.16
2024-01-08T01:13:49.658Z,56.23
2024-01-08T01:16:17.818Z,56.05
2024-01-08T01:18:46.243Z,56.22
2024-01-08T01:21:22.198Z,56.25
2024-01-08T01:23:51.609Z,56.18
2024-01-08T01:26:21.685Z,56.40
2024-01-08T01:28:50.690Z,56.62
2024-01-08T01:31:18.598Z,56.71
2024-01-08T01:33:46.595Z,56.59
2024-01-08T01:36:14.556Z,56.53
2024-01-08T01:38:42.355Z,56.45
2024-01-08T01:41:10.199Z,56.56
2024-01-08T01:43:38.055Z,56.69
2024-01-08T01:46:09.328Z,56.51
2024-01-08T01:48:37.255Z,56.62
2024-01-08T01:51:05.455Z,56.91
2024-01-08T01:53:33.707Z,56.69
2024-01-08T01:56:02.160Z,56.69
2024-01-08T01:58:31.016Z,56.58
2024-01-08T02:00:59.128Z,56.65
2024-01-08T02:03:27.796Z,56.53
2024-01-08T02:05:56.231Z,56.62
2024-01-08T02:08:24.588Z,56.76
2024-01-08T02:10:53.096Z,56.73
2024-01-08T02:13:20.949Z,56.85
2024-01-08T02:15:48.888Z,56.77
2024-01-08T02:18:17.001Z,56.89
2024-01-08T02:20:44.979Z,56.84
2024-01-08T02:23:12.981Z,56.96
2024-01-08T02:25:41.362Z,56.84
2024-01-08T02:28:09.362Z,56.95
2024-01-08T02:30:37.198Z,56.97
2024-01-08T02:33:05.350Z,57.02
2024-01-08T02:35:33.570Z,57.05
2024-01-08T02:38:01.536Z,57.14
2024-01-08T02:40:29.539Z,57.11
2024-01-08T02:42:57.613Z,57.40
2024-01-08T02:45:25.502Z,57.42
2024-01-08T02:47:53.559Z,57.54
2024-01-08T02:50:21.563Z,57.46
2024-01-08T02:52:49.494Z,57.49
2024-01-08T02:55:17.456Z,57.48
2024-01-08T02:57:45.378Z,57.41
2024-01-08T03:00:13.757Z,57.22
2024-01-08T03:02:41.884Z,57.08
2024-01-08T03:05:10.277Z,57.08
2024-01-08T03:07:38.298Z,57.08
2024-01-08T03:10:06.588Z,57.16
2024-01-08T03:12:34.604Z,57.15
2024-01-08T03:15:02.391Z,57.12
2024-01-08T03:17:30.483Z,57.32
2024-01-08T03:19:58.693Z,57.34
2024-01-08T03:22:26.627Z,57.37
2024-01-08T03:24:54.498Z,57.41
2024-01-08T03:27:22.325Z,57.42
2024-01-08T03:29:50.206Z,57.53
2024-01-08T03:32:18.107Z,57.70
2024-01-08T03:34:47.522Z,57.78
2024-01-08T03:37:15.512Z,57.60
2024-01-08T03:39:43.350Z,57.43
2024-01-08T03:42:11.242Z,57.41
2024-01-08T03:44:39.325Z,57.38
2024-01-08T03:47:07.223Z,57.06
2024-01-08T03:49:35.136Z,56.80
2024-01-08T03:52:02.986Z,58.39
2024-01-08T03:54:30.846Z,63.46
2024-01-08T03:56:58.623Z,62.35
2024-01-08T03:59:26.409Z,54.14
2024-01-08T04:01:55.231Z,47.79
2024-01-08T04:04:23.070Z,46.82
2024-01-08T04:06:50.900Z,42.68
2024-01-08T04:09:19.151Z,42.05
2024-01-08T04:11:47.245Z,41.77
2024-01-08T04:14:15.387Z,40.28
2024-01-08T04:16:43.454Z,39.16
2024-01-08T04:19:11.365Z,38.99
2024-01-08T04:21:39.542Z,37.77
2024-01-08T04:24:07.451Z,36.12
2024-01-08T04:26:35.346Z,36.02
2024-01-08T04:29:03.540Z,36.47
2024-01-08T04:31:32.538Z,34.76
2024-01-08T04:34:00.853Z,34.93
2024-01-08T04:36:28.879Z,34.86
2024-01-08T04:38:56.714Z,33.02
2024-01-08T04:41:24.774Z,33.82
2024-01-08T04:43:52.738Z,33.13
2024-01-08T04:46:20.624Z,33.04
2024-01-08T04:48:48.556Z,31.56
2024-01-08T04:51:24.283Z,31.31
2024-01-08T04:53:53.364Z,31.75
2024-01-08T04:56:25.746Z,31.26
2024-01-08T04:58:54.544Z,32.13
2024-01-08T05:01:23.381Z,30.69
2024-01-08T05:03:53.161Z,32.19
2024-01-08T05:06:21.202Z,30.90
2024-01-08T05:08:49.628Z,30.72
2024-01-08T05:11:17.605Z,31.01
2024-01-08T05:13:45.640Z,31.43
2024-01-08T05:16:13.612Z,30.62
2024-01-08T05:18:41.573Z,30.23
2024-01-08T05:21:14.606Z,30.60
2024-01-08T05:23:42.507Z,30.76
2024-01-08T05:26:10.760Z,31.22
2024-01-08T05:28:39.354Z,30.65
2024-01-08T05:31:07.335Z,31.01
2024-01-08T05:33:35.213Z,30.79
2024-01-08T05:36:03.654Z,30.30
2024-01-08T05:38:31.510Z,30.04
2024-01-08T05:40:59.440Z,30.16
2024-01-08T05:43:27.275Z,29.84
2024-01-08T05:45:55.445Z,30.18
2024-01-08T05:48:23.405Z,30.04
2024-01-08T05:50:51.351Z,30.07
2024-01-08T05:53:19.342Z,30.30
2024-01-08T05:55:47.237Z,30.35
2024-01-08T05:58:15.167Z,30.26
2024-01-08T06:00:43.091Z,30.02
2024-01-08T06:03:10.929Z,30.96
2024-01-08T06:05:38.913Z,30.64
2024-01-08T06:08:07.940Z,30.17
2024-01-08T06:10:35.860Z,30.54
2024-01-08T06:13:04.191Z,30.49
2024-01-08T06:15:32.001Z,31.00
2024-01-08T06:17:59.766Z,30.92
2024-01-08T06:20:27.705Z,31.45
2024-01-08T06:22:55.586Z,31.60
2024-01-08T06:25:23.596Z,31.91
2024-01-08T06:27:51.459Z,32.24
2024-01-08T06:30:19.760Z,32.12
2024-01-08T06:32:47.767Z,32.34
2024-01-08T06:35:16.050Z,32.40
2024-01-08T06:37:44.120Z,32.84
2024-01-08T06:40:12.597Z,32.52
2024-01-08T06:42:52.482Z,32.14
2024-01-08T06:45:28.216Z,31.92
2024-01-08T06:47:56.333Z,31.55
2024-01-08T06:50:24.624Z,31.67
2024-01-08T06:52:52.772Z,31.81
2024-01-08T06:55:20.670Z,31.95
2024-01-08T06:57:50.438Z,31.76
2024-01-08T07:00:19.444Z,31.18
2024-01-08T07:02:47.762Z,31.03
2024-01-08T07:05:17.120Z,30.74
2024-01-08T07:07:45.630Z,30.78
2024-01-08T07:10:13.716Z,30.97
2024-01-08T07:12:41.584Z,30.80
2024-01-08T07:15:09.510Z,30.74
2024-01-08T07:17:37.419Z,31.17
2024-01-08T07:20:05.940Z,30.64
2024-01-08T07:22:34.360Z,31.17
2024-01-08T07:25:03.372Z,34.15
2024-01-08T07:27:31.209Z,33.57
2024-01-08T07:29:59.286Z,32.86
2024-01-08T07:32:27.410Z,32.54
2024-01-08T07:34:55.394Z,32.77
2024-01-08T07:37:23.364Z,34.22
2024-01-08T07:39:51.524Z,31.41
2024-01-08T07:42:19.291Z,30.85
2024-01-08T07:44:47.189Z,31.20
2024-01-08T07:47:15.233Z,31.26
2024-01-08T07:49:43.069Z,30.56
2024-01-08T07:52:10.959Z,31.03
2024-01-08T07:54:38.748Z,30.35
2024-01-08T07:57:11.159Z,29.36
2024-01-08T07:59:40.527Z,29.81
2024-01-08T08:02:08.578Z,29.94
2024-01-08T08:04:36.490Z,30.23
2024-01-08T08:07:04.986Z,29.05
2024-01-08T08:09:32.882Z,29.33
2024-01-08T08:12:00.707Z,29.10
2024-01-08T08:14:28.554Z,29.51
2024-01-08T08:16:56.673Z,29.49
2024-01-08T08:19:26.381Z,29.60
2024-01-08T08:21:55.652Z,29.63
2024-01-08T08:24:24.506Z,28.94
2024-01-08T08:26:52.392Z,27.64
2024-01-08T08:29:20.333Z,27.46
2024-01-08T08:31:48.220Z,29.16
2024-01-08T08:34:16.492Z,31.85
2024-01-08T08:36:44.439Z,33.19
2024-01-08T08:39:16.235Z,35.53
2024-01-08T08:41:44.830Z,35.55
2024-01-08T08:44:14.942Z,38.93
2024-01-08T08:46:45.651Z,38.25
2024-01-08T08:49:15.093Z,39.73
2024-01-08T08:51:43.114Z,41.17
2024-01-08T08:54:11.040Z,42.58
2024-01-08T08:56:40.564Z,42.01
2024-01-08T08:59:08.466Z,44.69
2024-01-08T09:01:36.570Z,43.10
2024-01-08T09:04:04.695Z,43.66
2024-01-08T09:06:35.464Z,46.59
2024-01-08T09:09:03.497Z,46.39
2024-01-08T09:11:33.341Z,46.65
2024-01-08T09:14:01.258Z,46.30
2024-01-08T09:16:29.216Z,46.81
2024-01-08T09:18:57.855Z,46.19
2024-01-08T09:21:25.981Z,45.50
2024-01-08T09:23:54.234Z,45.92
2024-01-08T09:26:22.198Z,47.17
2024-01-08T09:28:50.533Z,47.79
2024-01-08T09:31:18.940Z,48.19
2024-01-08T09:33:48.414Z,48.45
2024-01-08T09:36:16.446Z,48.54
2024-01-08T09:38:46.628Z,48.02
2024-01-08T09:41:23.159Z,49.19
2024-01-08T09:43:53.770Z,47.46
2024-01-08T09:46:29.963Z,47.19
2024-01-08T09:48:59.160Z,48.35
2024-01-08T09:51:27.097Z,47.95
2024-01-08T09:53:59.610Z,47.10
2024-01-08T09:56:28.486Z,47.28
2024-01-08T09:58:57.551Z,46.78
2024-01-08T10:01:25.500Z,45.74
2024-01-08T10:03:53.952Z,46.43
2024-01-08T10:06:22.323Z,45.83
2024-01-08T10:08:50.567Z,45.08
2024-01-08T10:11:19.348Z,46.54
2024-01-08T10:13:47.419Z,45.32
2024-01-08T10:16:16.325Z,44.14
2024-01-08T10:18:48.146Z,45.97
2024-01-08T10:21:17.260Z,46.14
2024-01-08T10:23:47.763Z,46.70
2024-01-08T10:26:17.861Z,45.32
2024-01-08T10:28:47.862Z,45.52
2024-01-08T10:31:15.738Z,43.83
2024-01-08T10:33:45.625Z,42.92
2024-01-08T10:36:13.695Z,42.29
2024-01-08T10:38:41.811Z,42.68
2024-01-08T10:41:10.525Z,42.52
2024-01-08T10:43:38.329Z,42.41
2024-01-08T10:46:07.904Z,39.98
2024-01-08T10:48:44.772Z,40.58
2024-01-08T10:51:16.481Z,39.96
2024-01-08T10:53:45.943Z,39.50
2024-01-08T10:56:18.282Z,39.40
2024-01-08T10:58:51.213Z,39.57
2024-01-08T11:01:19.436Z,40.75
2024-01-08T11:03:47.821Z,41.19
2024-01-08T11:06:16.881Z,39.26
2024-01-08T11:08:46.111Z,38.77
2024-01-08T11:11:16.538Z,39.92
2024-01-08T11:13:45.362Z,39.16
2024-01-08T11:16:15.017Z,38.77
2024-01-08T11:18:43.011Z,39.39
2024-01-08T11:21:13.651Z,37.03
2024-01-08T11:23:43.707Z,37.96
2024-01-08T11:26:15.945Z,37.87
2024-01-08T11:28:43.851Z,37.11
2024-01-08T11:31:25.943Z,36.33
2024-01-08T11:34:15.523Z,36.86
2024-01-08T11:36:50.614Z,35.91
2024-01-08T11:39:19.979Z,38.09
2024-01-08T11:41:48.372Z,38.07
2024-01-08T11:44:16.440Z,37.46
2024-01-08T11:46:45.724Z,37.48
2024-01-08T11:49:13.792Z,37.84
2024-01-08T11:51:43.316Z,37.04
2024-01-08T11:54:14.934Z,36.40
2024-01-08T11:56:43.316Z,36.15
2024-01-08T11:59:11.525Z,36.78
2024-01-08T12:01:39.678Z,35.67
2024-01-08T12:04:08.004Z,34.84
2024-01-08T12:06:36.148Z,34.54
2024-01-08T12:09:04.336Z,35.05
2024-01-08T12:11:32.225Z,35.89
2024-01-08T12:14:00.195Z,34.94
2024-01-08T12:16:28.870Z,36.07
2024-01-08T12:18:56.881Z,36.37
2024-01-08T12:21:28.290Z,34.71
2024-01-08T12:23:58.576Z,35.27
2024-01-08T12:26:28.354Z,36.17
2024-01-08T12:28:56.546Z,34.70
2024-01-08T12:31:27.634Z,35.05
2024-01-08T12:33:58.337Z,35.27
2024-01-08T12:36:26.323Z,35.52
2024-01-08T12:38:54.181Z,35.93
2024-01-08T12:41:22.068Z,35.42
2024-01-08T12:43:49.963Z,35.59
2024-01-08T12:46:17.861Z,35.59
2024-01-08T12:48:46.023Z,35.80
2024-01-08T12:51:14.029Z,36.47
2024-01-08T12:53:42.014Z,35.68
2024-01-08T12:56:10.616Z,35.98
2024-01-08T12:58:38.604Z,35.62
2024-01-08T13:01:06.485Z,35.50
2024-01-08T13:03:34.901Z,36.04
2024-01-08T13:06:02.849Z,35.81
2024-01-08T13:08:31.937Z,36.40
2024-01-08T13:10:59.923Z,36.08
2024-01-08T13:13:27.984Z,36.18
2024-01-08T13:15:55.809Z,35.57
2024-01-08T13:18:24.328Z,35.83
2024-01-08T13:20:52.298Z,36.65
2024-01-08T13:23:20.210Z,36.96
2024-01-08T13:25:48.215Z,35.69
2024-01-08T13:28:16.060Z,37.09
2024-01-08T13:30:44.269Z,36.12
2024-01-08T13:33:12.407Z,35.92
2024-01-08T13:35:40.328Z,37.54
2024-01-08T13:38:08.300Z,38.46
2024-01-08T13:40:36.140Z,39.27
2024-01-08T13:43:05.100Z,37.52
2024-01-08T13:45:32.946Z,35.68
2024-01-08T13:48:01.077Z,36.28
2024-01-08T13:50:31.875Z,36.54
2024-01-08T13:52:59.894Z,36.38
2024-01-08T13:55:27.708Z,35.71
2024-01-08T13:57:56.044Z,35.25
2024-01-08T14:00:23.977Z,34.98
2024-01-08T14:02:54.070Z,35.09
2024-01-08T14:05:22.338Z,34.86
2024-01-08T14:07:50.342Z,34.64
2024-01-08T14:10:18.437Z,33.88
2024-01-08T14:12:46.291Z,34.15
2024-01-08T14:15:14.526Z,33.42
2024-01-08T14:17:42.830Z,33.45
2024-01-08T14:20:18.484Z,33.92
2024-01-08T14:22:48.848Z,33.24
2024-01-08T14:25:17.718Z,33.20
2024-01-08T14:27:45.623Z,33.64
2024-01-08T14:30:13.979Z,33.98
2024-01-08T14:32:43.688Z,33.95
2024-01-08T14:35:12.219Z,33.73
2024-01-08T14:37:44.058Z,34.13
2024-01-08T14:40:12.508Z,34.03
2024-01-08T14:42:40.497Z,34.34
2024-01-08T14:45:09.066Z,34.85
2024-01-08T14:47:36.930Z,35.31
2024-01-08T14:50:07.460Z,35.72
2024-01-08T14:52:35.461Z,36.25
2024-01-08T14:55:03.546Z,36.91
2024-01-08T14:57:32.674Z,37.36
2024-01-08T15:00:01.315Z,38.05
2024-01-08T15:02:32.235Z,38.44
2024-01-08T15:05:00.159Z,38.79
2024-01-08T15:07:28.419Z,39.24
2024-01-08T15:09:58.819Z,39.59
2024-01-08T15:12:26.631Z,40.87
2024-01-08T15:14:54.483Z,40.82
2024-01-08T15:17:22.896Z,41.10
2024-01-08T15:19:51.047Z,41.72
2024-01-08T15:22:18.976Z,41.82
2024-01-08T15:24:46.983Z,41.77
2024-01-08T15:27:14.893Z,42.72
2024-01-08T15:29:42.820Z,42.92
2024-01-08T15:32:10.780Z,43.18
2024-01-08T15:34:39.325Z,43.10
2024-01-08T15:37:07.205Z,43.36
2024-01-08T15:39:35.154Z,43.69
2024-01-08T15:42:03.090Z,43.61
2024-01-08T15:44:31.051Z,43.65
2024-01-08T15:46:59.790Z,43.79
2024-01-08T15:49:27.924Z,43.75
2024-01-08T15:51:55.873Z,43.88
2024-01-08T15:54:24.983Z,44.11
2024-01-08T15:56:53.085Z,43.96
2024-01-08T15:59:21.249Z,44.33
2024-01-08T16:01:49.159Z,44.51
2024-01-08T16:04:17.278Z,44.75
2024-01-08T16:06:48.272Z,44.60
2024-01-08T16:09:18.208Z,44.51
2024-01-08T16:11:46.242Z,44.59
2024-01-08T16:14:14.164Z,44.67
2024-01-08T16:16:42.143Z,44.73
2024-01-08T16:19:10.217Z,44.75
2024-01-08T16:21:38.178Z,44.97
2024-01-08T16:24:12.900Z,45.24
2024-01-08T16:26:43.519Z,45.08
2024-01-08T16:29:12.622Z,44.81
2024-01-08T16:31:41.525Z,44.70
2024-01-08T16:34:09.599Z,44.80
2024-01-08T16:36:39.148Z,44.94
2024-01-08T16:39:10.501Z,44.91
2024-01-08T16:41:38.353Z,44.85
2024-01-08T16:44:06.387Z,45.01
2024-01-08T16:46:34.405Z,45.12
2024-01-08T16:49:03.050Z,45.23
2024-01-08T16:51:30.951Z,45.44
2024-01-08T16:54:03.265Z,45.72
2024-01-08T16:56:33.229Z,45.80
2024-01-08T16:59:01.220Z,46.27
2024-01-08T17:01:34.632Z,46.13
2024-01-08T17:04:04.811Z,46.09
2024-01-08T17:06:32.929Z,46.37
2024-01-08T17:09:04.810Z,46.65
2024-01-08T17:11:32.822Z,46.82
2024-01-08T17:14:00.819Z,46.82
2024-01-08T17:16:28.730Z,46.68
2024-01-08T17:18:57.163Z,46.64
2024-01-08T17:21:25.167Z,46.73
2024-01-08T17:23:52.972Z,46.68
2024-01-08T17:26:21.154Z,46.86
2024-01-08T17:28:49.321Z,47.03
2024-01-08T17:31:17.218Z,46.94
2024-01-08T17:33:45.380Z,47.10
2024-01-08T17:36:13.575Z,47.01
2024-01-08T17:38:41.875Z,47.16
2024-01-08T17:41:10.130Z,47.63
2024-01-08T17:43:38.014Z,47.92
2024-01-08T17:46:06.868Z,48.10
2024-01-08T17:48:34.867Z,48.23
2024-01-08T17:51:03.220Z,48.31
2024-01-08T17:53:31.570Z,48.33
2024-01-08T17:55:59.468Z,48.03
2024-01-08T17:58:29.311Z,48.01
2024-01-08T18:00:57.351Z,48.06
2024-01-08T18:03:25.182Z,48.31
2024-01-08T18:05:53.199Z,48.62
2024-01-08T18:08:21.334Z,48.38
2024-01-08T18:10:50.012Z,48.23
2024-01-08T18:13:17.814Z,48.41
2024-01-08T18:15:46.055Z,48.47
2024-01-08T18:18:16.214Z,48.27
2024-01-08T18:20:46.305Z,48.21
2024-01-08T18:23:14.479Z,48.30
2024-01-08T18:25:42.640Z,48.26
2024-01-08T18:28:10.492Z,48.44
2024-01-08T18:30:38.554Z,48.79
2024-01-08T18:33:06.528Z,49.02
2024-01-08T18:35:34.486Z,48.87
2024-01-08T18:38:02.765Z,48.83
2024-01-08T18:40:31.076Z,48.89
2024-01-08T18:42:59.107Z,48.69
2024-01-08T18:45:26.976Z,48.76
2024-01-08T18:47:54.995Z,48.70
2024-01-08T18:50:22.914Z,48.76
2024-01-08T18:52:53.486Z,48.98
2024-01-08T18:55:21.685Z,48.96
2024-01-08T18:57:50.090Z,48.95
2024-01-08T19:00:18.576Z,49.07
2024-01-08T19:02:46.550Z,49.03
2024-01-08T19:05:18.378Z,49.00
2024-01-08T19:07:48.343Z,49.08
2024-01-08T19:10:16.254Z,49.21
2024-01-08T19:12:46.237Z,49.36
2024-01-08T19:15:17.508Z,49.45
2024-01-08T19:17:45.776Z,49.55
2024-01-08T19:20:13.842Z,49.76
2024-01-08T19:22:41.671Z,50.27
2024-01-08T19:25:09.831Z,50.24
2024-01-08T19:27:37.985Z,50.14
2024-01-08T19:30:06.503Z,50.01
2024-01-08T19:32:34.472Z,50.25
2024-01-08T19:35:02.454Z,50.39
2024-01-08T19:37:30.379Z,50.15
2024-01-08T19:39:58.298Z,50.13
2024-01-08T19:42:26.235Z,50.77
2024-01-08T19:44:54.140Z,50.35
2024-01-08T19:47:22.179Z,50.22
2024-01-08T19:49:50.251Z,50.02
2024-01-08T19:52:18.350Z,50.01
2024-01-08T19:54:48.985Z,49.94
2024-01-08T19:57:17.414Z,50.00
2024-01-08T19:59:45.842Z,50.24
2024-01-08T20:02:13.878Z,50.20
2024-01-08T20:04:41.893Z,50.34
2024-01-08T20:07:09.811Z,50.38
2024-01-08T20:09:37.737Z,50.62
2024-01-08T20:12:06.300Z,50.76
2024-01-08T20:14:34.927Z,50.97
2024-01-08T20:17:02.842Z,51.15
2024-01-08T20:19:30.933Z,51.27
2024-01-08T20:21:58.771Z,51.20
2024-01-08T20:24:26.587Z,51.22
2024-01-08T20:26:54.503Z,51.15
2024-01-08T20:29:22.398Z,51.06
2024-01-08T20:32:04.062Z,51.14
2024-01-08T20:34:32.038Z,51.07
2024-01-08T20:37:00.328Z,51.25
2024-01-08T20:39:28.407Z,51.32
2024-01-08T20:41:56.419Z,51.33
2024-01-08T20:44:24.300Z,51.49
2024-01-08T20:46:52.241Z,51.53
2024-01-08T20:49:27.838Z,51.49
2024-01-08T20:51:56.107Z,51.54
2024-01-08T20:54:24.319Z,51.53
2024-01-08T20:56:52.211Z,51.68
2024-01-08T20:59:20.428Z,51.89
2024-01-08T21:01:48.234Z,52.05
2024-01-08T21:04:16.154Z,52.19
2024-01-08T21:06:43.979Z,51.88
2024-01-08T21:09:11.869Z,51.92
2024-01-08T21:11:39.733Z,51.78
2024-01-08T21:14:07.630Z,51.59
2024-01-08T21:16:36.349Z,51.42
2024-01-08T21:19:06.265Z,51.45
2024-01-08T21:21:34.509Z,51.40
2024-01-08T21:24:02.453Z,51.29
2024-01-08T21:26:30.483Z,51.41
2024-01-08T21:28:58.476Z,51.50
2024-01-08T21:31:26.491Z,55.27
2024-01-08T21:33:54.533Z,58.47
2024-01-08T21:36:22.485Z,53.15
2024-01-08T21:38:50.438Z,45.87
2024-01-08T21:41:18.371Z,41.76
2024-01-08T21:43:46.437Z,38.66
2024-01-08T21:46:14.266Z,36.53
2024-01-08T21:48:45.495Z,34.63
2024-01-08T21:51:13.686Z,33.17
2024-01-08T21:53:41.783Z,31.92
2024-01-08T21:56:09.952Z,29.50
2024-01-08T21:58:37.950Z,29.51
2024-01-08T22:01:05.829Z,31.30
2024-01-08T22:03:33.773Z,32.82
2024-01-08T22:06:01.846Z,34.07
2024-01-08T22:08:29.867Z,35.24
2024-01-08T22:10:57.839Z,36.49
2024-01-08T22:13:25.729Z,37.04
2024-01-08T22:15:53.570Z,37.81
2024-01-08T22:18:21.457Z,39.36
2024-01-08T22:20:49.476Z,39.92
2024-01-08T22:23:17.484Z,40.46
2024-01-08T22:25:45.576Z,41.37
2024-01-08T22:28:13.461Z,42.13
2024-01-08T22:30:41.776Z,42.48
2024-01-08T22:33:09.989Z,43.05
2024-01-08T22:35:38.048Z,43.48
2024-01-08T22:38:05.858Z,44.28
2024-01-08T22:40:33.694Z,45.10
2024-01-08T22:43:01.477Z,45.73
2024-01-08T22:45:29.608Z,45.69
2024-01-08T22:47:57.566Z,46.16
2024-01-08T22:50:25.477Z,46.59
2024-01-08T22:52:53.360Z,46.97
2024-01-08T22:55:22.194Z,47.46
2024-01-08T22:57:50.209Z,48.47
2024-01-08T23:00:18.910Z,56.17
2024-01-08T23:02:46.884Z,53.33
2024-01-08T23:05:15.028Z,45.46
2024-01-08T23:07:43.062Z,40.44
2024-01-08T23:10:10.971Z,38.05
2024-01-08T23:12:38.837Z,36.30
2024-01-08T23:15:07.405Z,34.58
2024-01-08T23:17:35.538Z,33.17
2024-01-08T23:20:03.979Z,32.08
2024-01-08T23:22:32.005Z,31.28
2024-01-08T23:24:59.823Z,31.09
2024-01-08T23:27:27.911Z,30.31
2024-01-08T23:29:56.876Z,28.66
2024-01-08T23:32:25.043Z,30.57
2024-01-08T23:34:52.975Z,32.02
2024-01-08T23:37:20.865Z,33.07
2024-01-08T23:39:49.028Z,34.25
2024-01-08T23:42:16.940Z,36.23
2024-01-08T23:44:44.794Z,37.05
2024-01-08T23:47:12.701Z,37.72
2024-01-08T23:49:40.981Z,38.27
2024-01-08T23:52:08.955Z,38.79
2024-01-08T23:54:36.919Z,40.13
2024-01-08T23:57:05.104Z,40.86
2024-01-08T23:59:32.921Z,41.56
